sensor_id;sensor_type;location;lat;lon;timestamp;temperature;humidity
81202;DHT22;71068;47.662;-2.750;2023-08-06T00:02:04;16.10;76.30
81202;DHT22;71068;47.662;-2.750;2023-08-06T00:04:30;16.20;76.20
81202;DHT22;71068;47.662;-2.750;2023-08-06T00:07:00;16.30;75.90
81202;DHT22;71068;47.662;-2.750;2023-08-06T00:09:31;16.40;75.70
81202;DHT22;71068;47.662;-2.750;2023-08-06T00:11:57;16.40;75.50
81202;DHT22;71068;47.662;-2.750;2023-08-06T00:14:26;16.40;75.70
81202;DHT22;71068;47.662;-2.750;2023-08-06T00:16:53;16.30;76.30
81202;DHT22;71068;47.662;-2.750;2023-08-06T00:19:20;16.30;76.40
81202;DHT22;71068;47.662;-2.750;2023-08-06T00:21:54;16.20;76.00
81202;DHT22;71068;47.662;-2.750;2023-08-06T00:24:20;16.30;76.10
81202;DHT22;71068;47.662;-2.750;2023-08-06T00:26:47;16.40;76.00
81202;DHT22;71068;47.662;-2.750;2023-08-06T00:29:13;16.30;76.40
81202;DHT22;71068;47.662;-2.750;2023-08-06T00:31:40;16.30;76.50
81202;DHT22;71068;47.662;-2.750;2023-08-06T00:34:24;16.20;76.50
81202;DHT22;71068;47.662;-2.750;2023-08-06T00:36:52;16.20;77.10
81202;DHT22;71068;47.662;-2.750;2023-08-06T00:39:19;16.10;77.30
81202;DHT22;71068;47.662;-2.750;2023-08-06T00:41:49;16.10;77.30
81202;DHT22;71068;47.662;-2.750;2023-08-06T00:44:15;16.10;77.70
81202;DHT22;71068;47.662;-2.750;2023-08-06T00:46:41;16.10;77.70
81202;DHT22;71068;47.662;-2.750;2023-08-06T00:49:07;16.10;77.60
81202;DHT22;71068;47.662;-2.750;2023-08-06T00:51:34;16.20;77.40
81202;DHT22;71068;47.662;-2.750;2023-08-06T00:54:01;16.00;77.60
81202;DHT22;71068;47.662;-2.750;2023-08-06T00:56:28;16.00;78.80
81202;DHT22;71068;47.662;-2.750;2023-08-06T00:58:58;15.90;78.00
81202;DHT22;71068;47.662;-2.750;2023-08-06T01:01:27;16.00;78.20
81202;DHT22;71068;47.662;-2.750;2023-08-06T01:03:54;15.90;79.10
81202;DHT22;71068;47.662;-2.750;2023-08-06T01:06:38;15.90;78.40
81202;DHT22;71068;47.662;-2.750;2023-08-06T01:15:07;16.20;77.80
81202;DHT22;71068;47.662;-2.750;2023-08-06T01:17:37;16.30;77.60
81202;DHT22;71068;47.662;-2.750;2023-08-06T01:20:17;16.20;77.90
81202;DHT22;71068;47.662;-2.750;2023-08-06T01:22:48;16.10;78.00
81202;DHT22;71068;47.662;-2.750;2023-08-06T01:25:44;16.20;78.30
81202;DHT22;71068;47.662;-2.750;2023-08-06T01:31:58;16.10;78.60
81202;DHT22;71068;47.662;-2.750;2023-08-06T01:34:39;15.90;79.10
81202;DHT22;71068;47.662;-2.750;2023-08-06T01:37:11;16.10;78.80
81202;DHT22;71068;47.662;-2.750;2023-08-06T01:39:42;16.00;78.80
81202;DHT22;71068;47.662;-2.750;2023-08-06T01:42:09;16.00;79.20
81202;DHT22;71068;47.662;-2.750;2023-08-06T01:44:45;15.90;79.50
81202;DHT22;71068;47.662;-2.750;2023-08-06T01:47:19;15.90;79.50
81202;DHT22;71068;47.662;-2.750;2023-08-06T01:49:45;15.90;79.30
81202;DHT22;71068;47.662;-2.750;2023-08-06T01:52:19;15.90;79.60
81202;DHT22;71068;47.662;-2.750;2023-08-06T01:54:47;15.90;79.80
81202;DHT22;71068;47.662;-2.750;2023-08-06T01:57:14;15.90;79.70
81202;DHT22;71068;47.662;-2.750;2023-08-06T01:59:50;15.90;79.70
81202;DHT22;71068;47.662;-2.750;2023-08-06T02:02:25;15.80;79.80
81202;DHT22;71068;47.662;-2.750;2023-08-06T02:05:05;15.70;80.50
81202;DHT22;71068;47.662;-2.750;2023-08-06T02:07:31;15.60;80.70
81202;DHT22;71068;47.662;-2.750;2023-08-06T02:09:57;15.60;80.70
81202;DHT22;71068;47.662;-2.750;2023-08-06T02:12:26;15.50;80.90
81202;DHT22;71068;47.662;-2.750;2023-08-06T02:14:54;15.30;81.70
81202;DHT22;71068;47.662;-2.750;2023-08-06T02:17:25;15.30;82.00
81202;DHT22;71068;47.662;-2.750;2023-08-06T02:19:51;15.30;81.80
81202;DHT22;71068;47.662;-2.750;2023-08-06T02:22:19;15.30;82.10
81202;DHT22;71068;47.662;-2.750;2023-08-06T02:24:50;15.40;81.30
81202;DHT22;71068;47.662;-2.750;2023-08-06T02:27:16;15.50;80.90
81202;DHT22;71068;47.662;-2.750;2023-08-06T02:29:56;15.50;80.90
81202;DHT22;71068;47.662;-2.750;2023-08-06T02:32:29;15.50;81.00
81202;DHT22;71068;47.662;-2.750;2023-08-06T02:34:59;15.40;81.00
81202;DHT22;71068;47.662;-2.750;2023-08-06T02:37:25;15.30;81.00
81202;DHT22;71068;47.662;-2.750;2023-08-06T02:40:03;15.30;81.90
81202;DHT22;71068;47.662;-2.750;2023-08-06T02:42:33;15.20;81.60
81202;DHT22;71068;47.662;-2.750;2023-08-06T02:45:06;15.30;81.70
81202;DHT22;71068;47.662;-2.750;2023-08-06T02:47:34;15.40;81.20
81202;DHT22;71068;47.662;-2.750;2023-08-06T02:50:05;15.40;81.20
81202;DHT22;71068;47.662;-2.750;2023-08-06T02:55:20;15.20;81.40
81202;DHT22;71068;47.662;-2.750;2023-08-06T02:57:47;15.30;81.50
81202;DHT22;71068;47.662;-2.750;2023-08-06T03:00:17;15.20;81.50
81202;DHT22;71068;47.662;-2.750;2023-08-06T03:02:45;15.10;81.80
81202;DHT22;71068;47.662;-2.750;2023-08-06T03:05:13;15.00;81.60
81202;DHT22;71068;47.662;-2.750;2023-08-06T03:07:39;15.00;82.10
81202;DHT22;71068;47.662;-2.750;2023-08-06T03:10:09;15.00;81.80
81202;DHT22;71068;47.662;-2.750;2023-08-06T03:12:40;15.00;82.10
81202;DHT22;71068;47.662;-2.750;2023-08-06T03:15:13;15.00;82.60
81202;DHT22;71068;47.662;-2.750;2023-08-06T03:17:42;15.00;82.10
81202;DHT22;71068;47.662;-2.750;2023-08-06T03:20:11;15.00;82.00
81202;DHT22;71068;47.662;-2.750;2023-08-06T03:22:54;15.00;82.50
81202;DHT22;71068;47.662;-2.750;2023-08-06T03:25:22;15.10;82.00
81202;DHT22;71068;47.662;-2.750;2023-08-06T03:27:48;15.10;81.40
81202;DHT22;71068;47.662;-2.750;2023-08-06T03:30:15;15.30;81.30
81202;DHT22;71068;47.662;-2.750;2023-08-06T03:33:06;15.20;81.60
81202;DHT22;71068;47.662;-2.750;2023-08-06T03:35:36;15.20;80.90
81202;DHT22;71068;47.662;-2.750;2023-08-06T03:38:02;15.20;80.80
81202;DHT22;71068;47.662;-2.750;2023-08-06T03:40:34;15.40;80.50
81202;DHT22;71068;47.662;-2.750;2023-08-06T03:43:03;15.30;80.50
81202;DHT22;71068;47.662;-2.750;2023-08-06T03:45:41;15.20;80.80
81202;DHT22;71068;47.662;-2.750;2023-08-06T03:48:08;15.20;80.90
81202;DHT22;71068;47.662;-2.750;2023-08-06T03:50:53;15.20;80.70
81202;DHT22;71068;47.662;-2.750;2023-08-06T03:53:19;15.30;80.20
81202;DHT22;71068;47.662;-2.750;2023-08-06T03:56:07;15.30;80.20
81202;DHT22;71068;47.662;-2.750;2023-08-06T03:58:33;15.10;81.00
81202;DHT22;71068;47.662;-2.750;2023-08-06T04:01:13;15.20;81.20
81202;DHT22;71068;47.662;-2.750;2023-08-06T04:03:44;15.10;81.10
81202;DHT22;71068;47.662;-2.750;2023-08-06T04:06:27;15.10;81.10
81202;DHT22;71068;47.662;-2.750;2023-08-06T04:12:17;15.00;81.30
81202;DHT22;71068;47.662;-2.750;2023-08-06T04:14:59;15.00;81.50
81202;DHT22;71068;47.662;-2.750;2023-08-06T04:17:31;15.00;81.40
81202;DHT22;71068;47.662;-2.750;2023-08-06T04:19:59;15.00;81.10
81202;DHT22;71068;47.662;-2.750;2023-08-06T04:22:25;15.00;81.30
81202;DHT22;71068;47.662;-2.750;2023-08-06T04:28:33;14.90;81.30
81202;DHT22;71068;47.662;-2.750;2023-08-06T04:31:25;14.80;81.80
81202;DHT22;71068;47.662;-2.750;2023-08-06T04:34:10;14.60;82.40
81202;DHT22;71068;47.662;-2.750;2023-08-06T04:36:40;14.70;82.90
81202;DHT22;71068;47.662;-2.750;2023-08-06T04:39:28;14.60;82.40
81202;DHT22;71068;47.662;-2.750;2023-08-06T04:41:58;14.70;82.80
81202;DHT22;71068;47.662;-2.750;2023-08-06T04:44:25;14.60;82.40
81202;DHT22;71068;47.662;-2.750;2023-08-06T04:46:58;14.70;82.50
81202;DHT22;71068;47.662;-2.750;2023-08-06T04:49:25;14.60;82.20
81202;DHT22;71068;47.662;-2.750;2023-08-06T04:51:52;14.40;83.50
81202;DHT22;71068;47.662;-2.750;2023-08-06T04:54:18;14.40;83.70
81202;DHT22;71068;47.662;-2.750;2023-08-06T04:56:53;14.50;83.90
81202;DHT22;71068;47.662;-2.750;2023-08-06T04:59:36;14.40;83.60
81202;DHT22;71068;47.662;-2.750;2023-08-06T05:02:03;14.50;83.40
81202;DHT22;71068;47.662;-2.750;2023-08-06T05:04:39;14.50;83.60
81202;DHT22;71068;47.662;-2.750;2023-08-06T05:07:25;14.40;83.60
81202;DHT22;71068;47.662;-2.750;2023-08-06T05:09:53;14.30;84.10
81202;DHT22;71068;47.662;-2.750;2023-08-06T05:12:20;14.30;84.40
81202;DHT22;71068;47.662;-2.750;2023-08-06T05:14:49;14.30;84.20
81202;DHT22;71068;47.662;-2.750;2023-08-06T05:17:48;14.40;84.50
81202;DHT22;71068;47.662;-2.750;2023-08-06T05:20:28;14.40;83.90
81202;DHT22;71068;47.662;-2.750;2023-08-06T05:22:57;14.50;84.10
81202;DHT22;71068;47.662;-2.750;2023-08-06T05:25:31;14.60;83.70
81202;DHT22;71068;47.662;-2.750;2023-08-06T05:28:17;14.60;83.00
81202;DHT22;71068;47.662;-2.750;2023-08-06T05:33:48;14.50;83.20
81202;DHT22;71068;47.662;-2.750;2023-08-06T05:36:20;14.50;83.50
81202;DHT22;71068;47.662;-2.750;2023-08-06T05:39:13;14.50;83.50
81202;DHT22;71068;47.662;-2.750;2023-08-06T05:41:46;14.60;83.10
81202;DHT22;71068;47.662;-2.750;2023-08-06T05:44:13;14.70;83.20
81202;DHT22;71068;47.662;-2.750;2023-08-06T05:46:39;14.80;83.10
81202;DHT22;71068;47.662;-2.750;2023-08-06T05:52:20;14.50;83.50
81202;DHT22;71068;47.662;-2.750;2023-08-06T05:54:48;14.70;83.90
81202;DHT22;71068;47.662;-2.750;2023-08-06T05:57:17;14.70;83.00
81202;DHT22;71068;47.662;-2.750;2023-08-06T05:59:51;14.80;83.50
81202;DHT22;71068;47.662;-2.750;2023-08-06T06:02:18;14.80;83.00
81202;DHT22;71068;47.662;-2.750;2023-08-06T06:05:13;14.80;83.30
81202;DHT22;71068;47.662;-2.750;2023-08-06T06:07:45;14.70;83.80
81202;DHT22;71068;47.662;-2.750;2023-08-06T06:10:13;14.70;84.10
81202;DHT22;71068;47.662;-2.750;2023-08-06T06:13:02;14.90;83.40
81202;DHT22;71068;47.662;-2.750;2023-08-06T06:19:02;15.10;82.40
81202;DHT22;71068;47.662;-2.750;2023-08-06T06:28:49;15.40;82.30
81202;DHT22;71068;47.662;-2.750;2023-08-06T06:37:51;15.60;84.90
81202;DHT22;71068;47.662;-2.750;2023-08-06T06:40:32;15.60;82.50
81202;DHT22;71068;47.662;-2.750;2023-08-06T06:45:57;16.00;80.70
81202;DHT22;71068;47.662;-2.750;2023-08-06T06:52:26;15.90;81.50
81202;DHT22;71068;47.662;-2.750;2023-08-06T06:54:52;16.00;81.10
81202;DHT22;71068;47.662;-2.750;2023-08-06T07:01:08;16.10;81.50
81202;DHT22;71068;47.662;-2.750;2023-08-06T07:07:28;16.30;81.50
81202;DHT22;71068;47.662;-2.750;2023-08-06T07:10:19;16.40;81.40
81202;DHT22;71068;47.662;-2.750;2023-08-06T07:23:35;16.60;81.40
81202;DHT22;71068;47.662;-2.750;2023-08-06T07:26:12;16.70;80.60
81202;DHT22;71068;47.662;-2.750;2023-08-06T07:32:26;16.80;79.60
81202;DHT22;71068;47.662;-2.750;2023-08-06T07:35:04;16.80;79.00
81202;DHT22;71068;47.662;-2.750;2023-08-06T07:37:37;17.00;78.90
81202;DHT22;71068;47.662;-2.750;2023-08-06T07:40:17;17.20;79.40
81202;DHT22;71068;47.662;-2.750;2023-08-06T07:43:02;17.10;79.30
81202;DHT22;71068;47.662;-2.750;2023-08-06T07:45:59;17.20;78.50
81202;DHT22;71068;47.662;-2.750;2023-08-06T07:48:47;17.50;77.90
81202;DHT22;71068;47.662;-2.750;2023-08-06T07:54:32;17.50;78.80
81202;DHT22;71068;47.662;-2.750;2023-08-06T08:00:43;17.80;77.20
81202;DHT22;71068;47.662;-2.750;2023-08-06T08:03:38;18.00;75.90
81202;DHT22;71068;47.662;-2.750;2023-08-06T08:06:24;18.00;75.80
81202;DHT22;71068;47.662;-2.750;2023-08-06T08:12:07;18.00;76.10
81202;DHT22;71068;47.662;-2.750;2023-08-06T08:14:46;18.10;75.20
81202;DHT22;71068;47.662;-2.750;2023-08-06T08:17:13;18.20;74.50
81202;DHT22;71068;47.662;-2.750;2023-08-06T08:19:58;18.40;74.00
81202;DHT22;71068;47.662;-2.750;2023-08-06T08:22:25;18.50;74.60
81202;DHT22;71068;47.662;-2.750;2023-08-06T08:32:05;18.70;74.40
81202;DHT22;71068;47.662;-2.750;2023-08-06T08:35:01;18.80;74.30
81202;DHT22;71068;47.662;-2.750;2023-08-06T08:41:03;18.80;72.20
81202;DHT22;71068;47.662;-2.750;2023-08-06T08:43:29;18.90;71.40
81202;DHT22;71068;47.662;-2.750;2023-08-06T08:45:56;19.10;70.60
81202;DHT22;71068;47.662;-2.750;2023-08-06T08:48:28;19.20;70.70
81202;DHT22;71068;47.662;-2.750;2023-08-06T08:50:55;19.30;69.50
81202;DHT22;71068;47.662;-2.750;2023-08-06T08:53:21;19.30;69.20
81202;DHT22;71068;47.662;-2.750;2023-08-06T08:55:50;19.50;69.10
81202;DHT22;71068;47.662;-2.750;2023-08-06T08:58:21;19.70;67.90
81202;DHT22;71068;47.662;-2.750;2023-08-06T09:00:47;19.70;68.20
81202;DHT22;71068;47.662;-2.750;2023-08-06T09:03:20;19.70;68.30
81202;DHT22;71068;47.662;-2.750;2023-08-06T09:05:49;19.70;69.80
81202;DHT22;71068;47.662;-2.750;2023-08-06T09:08:20;19.60;68.40
81202;DHT22;71068;47.662;-2.750;2023-08-06T09:10:56;20.00;68.40
81202;DHT22;71068;47.662;-2.750;2023-08-06T09:13:22;19.90;66.70
81202;DHT22;71068;47.662;-2.750;2023-08-06T09:15:49;20.00;65.30
81202;DHT22;71068;47.662;-2.750;2023-08-06T09:18:25;19.70;67.50
81202;DHT22;71068;47.662;-2.750;2023-08-06T09:20:57;20.10;64.60
81202;DHT22;71068;47.662;-2.750;2023-08-06T09:23:31;20.30;64.50
81202;DHT22;71068;47.662;-2.750;2023-08-06T09:25:59;20.20;64.10
81202;DHT22;71068;47.662;-2.750;2023-08-06T09:28:38;20.40;63.60
81202;DHT22;71068;47.662;-2.750;2023-08-06T09:31:04;20.40;63.10
81202;DHT22;71068;47.662;-2.750;2023-08-06T09:33:30;20.10;62.90
81202;DHT22;71068;47.662;-2.750;2023-08-06T09:36:07;20.40;64.20
81202;DHT22;71068;47.662;-2.750;2023-08-06T09:38:38;20.70;64.00
81202;DHT22;71068;47.662;-2.750;2023-08-06T09:41:07;21.00;61.50
81202;DHT22;71068;47.662;-2.750;2023-08-06T09:43:41;21.30;62.10
81202;DHT22;71068;47.662;-2.750;2023-08-06T09:46:12;21.50;61.90
81202;DHT22;71068;47.662;-2.750;2023-08-06T09:48:41;21.90;59.40
81202;DHT22;71068;47.662;-2.750;2023-08-06T09:51:08;22.10;57.60
81202;DHT22;71068;47.662;-2.750;2023-08-06T09:53:37;21.60;60.10
81202;DHT22;71068;47.662;-2.750;2023-08-06T09:56:05;21.70;58.50
81202;DHT22;71068;47.662;-2.750;2023-08-06T09:58:32;21.50;60.10
81202;DHT22;71068;47.662;-2.750;2023-08-06T10:01:02;21.30;60.30
81202;DHT22;71068;47.662;-2.750;2023-08-06T10:03:32;21.30;61.30
81202;DHT22;71068;47.662;-2.750;2023-08-06T10:06:00;21.60;60.10
81202;DHT22;71068;47.662;-2.750;2023-08-06T10:08:31;21.90;57.00
81202;DHT22;71068;47.662;-2.750;2023-08-06T10:10:59;22.20;56.60
81202;DHT22;71068;47.662;-2.750;2023-08-06T10:13:30;22.60;56.20
81202;DHT22;71068;47.662;-2.750;2023-08-06T10:15:59;22.90;57.80
81202;DHT22;71068;47.662;-2.750;2023-08-06T10:18:27;23.40;53.40
81202;DHT22;71068;47.662;-2.750;2023-08-06T10:20:54;23.40;53.10
81202;DHT22;71068;47.662;-2.750;2023-08-06T10:23:33;23.30;51.80
81202;DHT22;71068;47.662;-2.750;2023-08-06T10:26:01;23.50;52.20
81202;DHT22;71068;47.662;-2.750;2023-08-06T10:28:47;23.10;53.90
81202;DHT22;71068;47.662;-2.750;2023-08-06T10:31:13;23.10;55.10
81202;DHT22;71068;47.662;-2.750;2023-08-06T10:33:46;23.50;53.80
81202;DHT22;71068;47.662;-2.750;2023-08-06T10:36:15;23.50;53.20
81202;DHT22;71068;47.662;-2.750;2023-08-06T10:38:46;23.70;51.60
81202;DHT22;71068;47.662;-2.750;2023-08-06T10:44:07;23.80;53.70
81202;DHT22;71068;47.662;-2.750;2023-08-06T10:46:36;24.00;49.90
81202;DHT22;71068;47.662;-2.750;2023-08-06T10:49:05;24.20;50.20
81202;DHT22;71068;47.662;-2.750;2023-08-06T10:51:35;24.10;49.70
81202;DHT22;71068;47.662;-2.750;2023-08-06T10:54:04;24.40;48.90
81202;DHT22;71068;47.662;-2.750;2023-08-06T10:56:30;23.90;50.00
81202;DHT22;71068;47.662;-2.750;2023-08-06T10:58:57;24.30;48.90
81202;DHT22;71068;47.662;-2.750;2023-08-06T11:01:24;24.60;47.30
81202;DHT22;71068;47.662;-2.750;2023-08-06T11:04:02;24.60;48.00
81202;DHT22;71068;47.662;-2.750;2023-08-06T11:06:28;25.00;48.40
81202;DHT22;71068;47.662;-2.750;2023-08-06T11:08:55;24.90;48.20
81202;DHT22;71068;47.662;-2.750;2023-08-06T11:11:23;25.30;46.10
81202;DHT22;71068;47.662;-2.750;2023-08-06T11:13:50;25.60;46.90
81202;DHT22;71068;47.662;-2.750;2023-08-06T11:16:23;26.20;44.80
81202;DHT22;71068;47.662;-2.750;2023-08-06T11:19:00;26.40;42.60
81202;DHT22;71068;47.662;-2.750;2023-08-06T11:21:45;26.30;43.90
81202;DHT22;71068;47.662;-2.750;2023-08-06T11:24:13;26.40;44.20
81202;DHT22;71068;47.662;-2.750;2023-08-06T11:26:49;26.20;44.00
81202;DHT22;71068;47.662;-2.750;2023-08-06T11:29:22;26.40;43.30
81202;DHT22;71068;47.662;-2.750;2023-08-06T11:31:48;26.30;42.60
81202;DHT22;71068;47.662;-2.750;2023-08-06T11:38:08;25.40;45.60
81202;DHT22;71068;47.662;-2.750;2023-08-06T11:40:38;25.00;46.90
81202;DHT22;71068;47.662;-2.750;2023-08-06T11:43:06;24.50;48.90
81202;DHT22;71068;47.662;-2.750;2023-08-06T11:45:39;24.40;46.90
81202;DHT22;71068;47.662;-2.750;2023-08-06T11:51:17;24.40;49.00
81202;DHT22;71068;47.662;-2.750;2023-08-06T11:54:30;25.10;49.60
81202;DHT22;71068;47.662;-2.750;2023-08-06T11:57:00;25.50;46.00
81202;DHT22;71068;47.662;-2.750;2023-08-06T11:59:35;25.90;43.90
81202;DHT22;71068;47.662;-2.750;2023-08-06T12:02:04;26.30;41.70
81202;DHT22;71068;47.662;-2.750;2023-08-06T12:05:10;26.60;42.90
81202;DHT22;71068;47.662;-2.750;2023-08-06T12:11:06;25.80;45.80
81202;DHT22;71068;47.662;-2.750;2023-08-06T12:13:42;26.10;44.80
81202;DHT22;71068;47.662;-2.750;2023-08-06T12:16:09;26.00;45.30
81202;DHT22;71068;47.662;-2.750;2023-08-06T12:21:54;25.70;46.80
81202;DHT22;71068;47.662;-2.750;2023-08-06T12:24:21;26.20;44.60
81202;DHT22;71068;47.662;-2.750;2023-08-06T12:26:48;26.50;43.50
81202;DHT22;71068;47.662;-2.750;2023-08-06T12:38:58;26.40;42.50
81202;DHT22;71068;47.662;-2.750;2023-08-06T12:41:35;25.70;45.70
81202;DHT22;71068;47.662;-2.750;2023-08-06T12:44:04;25.50;44.40
81202;DHT22;71068;47.662;-2.750;2023-08-06T12:46:40;25.70;44.80
81202;DHT22;71068;47.662;-2.750;2023-08-06T12:49:23;25.50;44.90
81202;DHT22;71068;47.662;-2.750;2023-08-06T12:51:50;25.60;46.00
81202;DHT22;71068;47.662;-2.750;2023-08-06T12:54:26;25.30;46.80
81202;DHT22;71068;47.662;-2.750;2023-08-06T12:57:08;25.10;47.30
81202;DHT22;71068;47.662;-2.750;2023-08-06T12:59:39;24.80;46.80
81202;DHT22;71068;47.662;-2.750;2023-08-06T13:02:05;24.50;46.60
81202;DHT22;71068;47.662;-2.750;2023-08-06T13:04:31;24.50;48.40
81202;DHT22;71068;47.662;-2.750;2023-08-06T13:07:04;24.70;49.50
81202;DHT22;71068;47.662;-2.750;2023-08-06T13:09:34;25.20;46.60
81202;DHT22;71068;47.662;-2.750;2023-08-06T13:12:00;26.00;45.40
81202;DHT22;71068;47.662;-2.750;2023-08-06T13:22:00;27.70;43.70
81202;DHT22;71068;47.662;-2.750;2023-08-06T13:24:30;27.60;43.70
81202;DHT22;71068;47.662;-2.750;2023-08-06T13:26:57;27.60;42.50
81202;DHT22;71068;47.662;-2.750;2023-08-06T13:29:23;27.70;41.40
81202;DHT22;71068;47.662;-2.750;2023-08-06T13:31:50;27.80;44.10
81202;DHT22;71068;47.662;-2.750;2023-08-06T13:34:17;28.00;43.80
81202;DHT22;71068;47.662;-2.750;2023-08-06T13:36:43;27.90;43.50
81202;DHT22;71068;47.662;-2.750;2023-08-06T13:39:09;27.20;44.60
81202;DHT22;71068;47.662;-2.750;2023-08-06T13:41:37;26.90;45.50
81202;DHT22;71068;47.662;-2.750;2023-08-06T13:44:05;26.60;47.50
81202;DHT22;71068;47.662;-2.750;2023-08-06T13:46:34;25.90;48.10
81202;DHT22;71068;47.662;-2.750;2023-08-06T13:49:00;25.50;49.20
81202;DHT22;71068;47.662;-2.750;2023-08-06T13:51:25;24.90;51.00
81202;DHT22;71068;47.662;-2.750;2023-08-06T13:53:51;24.60;51.50
81202;DHT22;71068;47.662;-2.750;2023-08-06T13:56:19;24.30;52.50
81202;DHT22;71068;47.662;-2.750;2023-08-06T13:58:51;23.90;53.70
81202;DHT22;71068;47.662;-2.750;2023-08-06T14:01:27;23.70;53.90
81202;DHT22;71068;47.662;-2.750;2023-08-06T14:03:55;23.40;54.40
81202;DHT22;71068;47.662;-2.750;2023-08-06T14:06:21;23.30;55.30
81202;DHT22;71068;47.662;-2.750;2023-08-06T14:08:47;23.20;55.50
81202;DHT22;71068;47.662;-2.750;2023-08-06T14:11:13;23.40;55.20
81202;DHT22;71068;47.662;-2.750;2023-08-06T14:13:39;23.50;55.10
81202;DHT22;71068;47.662;-2.750;2023-08-06T14:16:15;23.70;52.70
81202;DHT22;71068;47.662;-2.750;2023-08-06T14:18:41;23.70;52.90
81202;DHT22;71068;47.662;-2.750;2023-08-06T14:21:12;23.90;52.20
81202;DHT22;71068;47.662;-2.750;2023-08-06T14:23:54;23.80;52.10
81202;DHT22;71068;47.662;-2.750;2023-08-06T14:26:20;23.90;51.40
81202;DHT22;71068;47.662;-2.750;2023-08-06T14:28:46;24.10;50.60
81202;DHT22;71068;47.662;-2.750;2023-08-06T14:31:12;24.50;50.30
81202;DHT22;71068;47.662;-2.750;2023-08-06T14:33:38;24.90;49.80
81202;DHT22;71068;47.662;-2.750;2023-08-06T14:36:11;25.00;50.10
81202;DHT22;71068;47.662;-2.750;2023-08-06T14:38:38;24.80;49.80
81202;DHT22;71068;47.662;-2.750;2023-08-06T14:41:23;24.70;50.60
81202;DHT22;71068;47.662;-2.750;2023-08-06T14:43:50;24.30;50.70
81202;DHT22;71068;47.662;-2.750;2023-08-06T14:46:25;24.30;51.40
81202;DHT22;71068;47.662;-2.750;2023-08-06T14:48:58;24.10;51.90
81202;DHT22;71068;47.662;-2.750;2023-08-06T14:51:24;24.20;52.50
81202;DHT22;71068;47.662;-2.750;2023-08-06T14:54:01;24.50;51.30
81202;DHT22;71068;47.662;-2.750;2023-08-06T14:56:35;24.80;50.40
81202;DHT22;71068;47.662;-2.750;2023-08-06T14:59:02;24.50;50.90
81202;DHT22;71068;47.662;-2.750;2023-08-06T15:01:34;24.20;52.60
81202;DHT22;71068;47.662;-2.750;2023-08-06T15:04:03;24.10;51.60
81202;DHT22;71068;47.662;-2.750;2023-08-06T15:06:29;24.10;51.40
81202;DHT22;71068;47.662;-2.750;2023-08-06T15:08:54;24.30;51.50
81202;DHT22;71068;47.662;-2.750;2023-08-06T15:11:24;24.30;51.00
81202;DHT22;71068;47.662;-2.750;2023-08-06T15:13:50;24.50;51.30
81202;DHT22;71068;47.662;-2.750;2023-08-06T15:16:16;24.30;51.60
81202;DHT22;71068;47.662;-2.750;2023-08-06T15:18:42;24.10;52.20
81202;DHT22;71068;47.662;-2.750;2023-08-06T15:21:09;24.10;52.40
81202;DHT22;71068;47.662;-2.750;2023-08-06T15:23:42;24.20;52.90
81202;DHT22;71068;47.662;-2.750;2023-08-06T15:26:11;24.40;52.80
81202;DHT22;71068;47.662;-2.750;2023-08-06T15:28:39;24.60;52.90
81202;DHT22;71068;47.662;-2.750;2023-08-06T15:31:05;24.90;52.30
81202;DHT22;71068;47.662;-2.750;2023-08-06T15:33:33;25.10;50.90
81202;DHT22;71068;47.662;-2.750;2023-08-06T15:36:01;25.60;49.60
81202;DHT22;71068;47.662;-2.750;2023-08-06T15:38:27;25.90;48.10
81202;DHT22;71068;47.662;-2.750;2023-08-06T15:40:53;25.80;47.90
81202;DHT22;71068;47.662;-2.750;2023-08-06T15:43:20;25.60;47.90
81202;DHT22;71068;47.662;-2.750;2023-08-06T15:45:46;25.30;48.20
81202;DHT22;71068;47.662;-2.750;2023-08-06T15:48:13;25.30;48.00
81202;DHT22;71068;47.662;-2.750;2023-08-06T15:50:39;25.00;48.80
81202;DHT22;71068;47.662;-2.750;2023-08-06T15:53:07;24.60;50.10
81202;DHT22;71068;47.662;-2.750;2023-08-06T15:55:36;24.20;52.00
81202;DHT22;71068;47.662;-2.750;2023-08-06T15:58:03;24.00;52.80
81202;DHT22;71068;47.662;-2.750;2023-08-06T16:00:32;23.90;52.90
81202;DHT22;71068;47.662;-2.750;2023-08-06T16:02:59;23.90;52.80
81202;DHT22;71068;47.662;-2.750;2023-08-06T16:05:26;23.70;53.60
81202;DHT22;71068;47.662;-2.750;2023-08-06T16:08:12;23.50;53.50
81202;DHT22;71068;47.662;-2.750;2023-08-06T16:10:38;23.60;54.40
81202;DHT22;71068;47.662;-2.750;2023-08-06T16:13:09;23.90;52.30
81202;DHT22;71068;47.662;-2.750;2023-08-06T16:15:37;23.90;52.20
81202;DHT22;71068;47.662;-2.750;2023-08-06T16:18:03;24.10;51.50
81202;DHT22;71068;47.662;-2.750;2023-08-06T16:20:42;24.00;51.70
81202;DHT22;71068;47.662;-2.750;2023-08-06T16:23:12;24.30;50.50
81202;DHT22;71068;47.662;-2.750;2023-08-06T16:25:48;24.70;49.70
81202;DHT22;71068;47.662;-2.750;2023-08-06T16:28:24;25.00;49.20
81202;DHT22;71068;47.662;-2.750;2023-08-06T16:30:56;25.10;49.60
81202;DHT22;71068;47.662;-2.750;2023-08-06T16:33:22;25.10;50.10
81202;DHT22;71068;47.662;-2.750;2023-08-06T16:35:48;25.00;50.60
81202;DHT22;71068;47.662;-2.750;2023-08-06T16:38:14;24.80;51.40
81202;DHT22;71068;47.662;-2.750;2023-08-06T16:40:42;24.30;52.00
81202;DHT22;71068;47.662;-2.750;2023-08-06T16:43:18;24.00;53.60
81202;DHT22;71068;47.662;-2.750;2023-08-06T16:45:45;23.90;53.30
81202;DHT22;71068;47.662;-2.750;2023-08-06T16:48:15;23.60;54.20
81202;DHT22;71068;47.662;-2.750;2023-08-06T16:50:42;23.40;53.90
81202;DHT22;71068;47.662;-2.750;2023-08-06T16:53:10;23.20;54.90
81202;DHT22;71068;47.662;-2.750;2023-08-06T16:55:37;23.10;55.50
81202;DHT22;71068;47.662;-2.750;2023-08-06T16:58:04;22.90;55.80
81202;DHT22;71068;47.662;-2.750;2023-08-06T17:00:36;23.00;56.40
81202;DHT22;71068;47.662;-2.750;2023-08-06T17:03:02;23.00;56.40
81202;DHT22;71068;47.662;-2.750;2023-08-06T17:05:29;22.90;56.80
81202;DHT22;71068;47.662;-2.750;2023-08-06T17:08:02;22.90;56.40
81202;DHT22;71068;47.662;-2.750;2023-08-06T17:10:32;22.90;55.90
81202;DHT22;71068;47.662;-2.750;2023-08-06T17:13:00;22.90;56.50
81202;DHT22;71068;47.662;-2.750;2023-08-06T17:15:44;22.80;55.90
81202;DHT22;71068;47.662;-2.750;2023-08-06T17:18:11;22.90;56.00
81202;DHT22;71068;47.662;-2.750;2023-08-06T17:20:49;22.80;56.10
81202;DHT22;71068;47.662;-2.750;2023-08-06T17:23:18;23.10;55.60
81202;DHT22;71068;47.662;-2.750;2023-08-06T17:25:46;23.50;54.70
81202;DHT22;71068;47.662;-2.750;2023-08-06T17:28:12;23.50;54.30
81202;DHT22;71068;47.662;-2.750;2023-08-06T17:31:09;23.10;55.20
81202;DHT22;71068;47.662;-2.750;2023-08-06T17:33:36;23.10;55.70
81202;DHT22;71068;47.662;-2.750;2023-08-06T17:36:03;22.90;56.30
81202;DHT22;71068;47.662;-2.750;2023-08-06T17:38:31;22.70;57.70
81202;DHT22;71068;47.662;-2.750;2023-08-06T17:40:57;22.70;57.20
81202;DHT22;71068;47.662;-2.750;2023-08-06T17:43:25;22.70;57.30
81202;DHT22;71068;47.662;-2.750;2023-08-06T17:45:53;22.70;58.20
81202;DHT22;71068;47.662;-2.750;2023-08-06T17:48:25;22.80;57.70